Tajique, New Mexico
Current Conditions -  °F | °C
As of 7:15 PM on Wednesday 17 Dec 2014 (Local Time) from K0E0 Reporting Station
Light Rain Light Rain  
Wind Chill: 34°   Ceiling: 1300
Heat Index: 34°   Visibility: 10mi
Dew Point: 32°   Wind: 0mph
Humidity: 92%   Direction: NA
Pressure: 30.05"   Gusts: NA
Location:  34.75°N, 106.29°W
Report Text: K0E0 180215Z AUTO 00000KT 10SM -RA SCT006 BKN013 OVC110 01/00 A3005 RMK AO2 T00110000
Loading
Personal Weather Stations






























Interactive Weather Map New forecast layout! Learn more

10-Day Weather Forecast

Advertisements
Track Severe Weather on mobile